Time;durP1;ratioP1;P1;durP2;ratioP2;P2;SDS_P1;SDS_P2;PMS_P1;PMS_P2;Temp;Humidity;BMP_temperature;BMP_pressure;BME280_temperature;BME280_humidity;BME280_pressure;Samples;Min_cycle;Max_cycle;Signal;HPM_P1;HPM_P2
2021/06/26 00:00:16;;;;;;;9.75;3.40;;;43.10;13.10;;;;;;5056149;28;20077;-68
2021/06/26 00:02:42;;;;;;;10.02;3.20;;;43.00;13.40;;;;;;5057262;28;20069;-69
2021/06/26 00:05:11;;;;;;;15.93;3.40;;;43.00;13.90;;;;;;5050432;28;20159;-67
2021/06/26 00:07:40;;;;;;;11.38;2.80;;;43.00;14.50;;;;;;5054611;28;20438;-69
2021/06/26 00:10:08;;;;;;;9.32;2.22;;;43.00;13.80;;;;;;5056927;28;20132;-68
2021/06/26 00:12:35;;;;;;;6.57;2.33;;;42.90;14.20;;;;;;5058492;28;20092;-68
2021/06/26 00:15:03;;;;;;;9.52;2.10;;;42.80;13.50;;;;;;5055585;28;20080;-68
2021/06/26 00:17:30;;;;;;;11.30;2.85;;;42.80;14.20;;;;;;5056712;28;20093;-69
2021/06/26 00:19:57;;;;;;;10.98;2.55;;;42.90;14.00;;;;;;5056945;28;20074;-67
2021/06/26 00:22:24;;;;;;;13.30;2.75;;;43.00;15.50;;;;;;5057980;28;20188;-67
2021/06/26 00:24:50;;;;;;;7.97;2.55;;;43.00;12.60;;;;;;5057000;28;20100;-66
2021/06/26 00:27:17;;;;;;;15.35;3.30;;;43.00;11.30;;;;;;5050860;28;20069;-67
2021/06/26 00:29:44;;;;;;;10.95;2.70;;;42.90;13.40;;;;;;5054748;28;20073;-66
2021/06/26 00:32:10;;;;;;;13.73;2.53;;;42.70;12.30;;;;;;5058091;28;20113;-66
2021/06/26 00:34:37;;;;;;;9.55;2.42;;;42.60;12.00;;;;;;5058522;28;20176;-67
2021/06/26 00:37:03;;;;;;;18.27;3.08;;;42.60;11.40;;;;;;5057535;28;20073;-66
2021/06/26 00:39:30;;;;;;;11.73;2.95;;;42.60;12.60;;;;;;5055752;28;20077;-67
2021/06/26 00:41:56;;;;;;;11.95;2.78;;;42.50;12.40;;;;;;5056724;28;20085;-66
2021/06/26 00:44:28;;;;;;;12.23;2.95;;;42.40;12.50;;;;;;5055271;28;20076;-68
2021/06/26 00:46:55;;;;;;;12.13;2.92;;;42.40;13.30;;;;;;5055249;28;20550;-67
2021/06/26 00:49:21;;;;;;;11.88;2.80;;;42.50;12.70;;;;;;5056960;28;20108;-67
2021/06/26 00:51:47;;;;;;;11.23;2.42;;;42.50;12.00;;;;;;5052823;28;20302;-66
2021/06/26 00:54:14;;;;;;;8.27;2.92;;;42.40;11.80;;;;;;5052672;28;20070;-68
2021/06/26 00:56:41;;;;;;;14.32;2.40;;;42.30;12.20;;;;;;5053147;28;20078;-67
2021/06/26 00:59:08;;;;;;;9.98;2.78;;;42.20;11.50;;;;;;5052309;28;20515;-67
2021/06/26 01:01:34;;;;;;;12.18;2.72;;;42.10;11.70;;;;;;5054131;28;20515;-68
2021/06/26 01:04:01;;;;;;;11.40;2.35;;;42.10;11.70;;;;;;5054056;28;20081;-68
2021/06/26 01:06:27;;;;;;;8.00;2.10;;;42.10;12.80;;;;;;5053606;28;20159;-68
2021/06/26 01:08:54;;;;;;;11.20;2.33;;;41.90;12.20;;;;;;5057878;28;20080;-68
2021/06/26 01:11:20;;;;;;;11.60;2.35;;;41.90;12.20;;;;;;5053588;28;20086;-67
2021/06/26 01:13:48;;;;;;;12.77;2.53;;;41.90;13.20;;;;;;5052266;28;20114;-66
2021/06/26 01:16:14;;;;;;;8.57;2.25;;;41.90;12.30;;;;;;5051907;28;20077;-65
2021/06/26 01:18:41;;;;;;;10.63;2.30;;;41.90;12.10;;;;;;5052926;28;20078;-67
2021/06/26 01:21:07;;;;;;;11.45;2.00;;;41.80;12.30;;;;;;5053893;28;20074;-67
2021/06/26 01:23:35;;;;;;;12.75;2.30;;;41.80;11.90;;;;;;5060208;28;20066;-66
2021/06/26 01:26:01;;;;;;;12.73;2.03;;;41.70;11.90;;;;;;5055509;28;20082;-67
2021/06/26 01:28:27;;;;;;;14.43;1.77;;;41.60;9.60;;;;;;5052375;28;20100;-67
2021/06/26 01:30:54;;;;;;;15.32;2.10;;;41.60;9.90;;;;;;5057019;28;20074;-66
2021/06/26 01:33:21;;;;;;;15.25;1.35;;;41.40;9.90;;;;;;5050279;28;20089;-67
2021/06/26 01:35:48;;;;;;;11.27;1.70;;;41.30;9.90;;;;;;5051408;28;20426;-67
2021/06/26 01:38:15;;;;;;;13.07;1.63;;;41.10;9.90;;;;;;5052496;28;20081;-67
2021/06/26 01:40:41;;;;;;;17.00;2.47;;;41.00;10.10;;;;;;5056112;28;20073;-70
2021/06/26 01:43:12;;;;;;;16.83;1.58;;;40.80;10.10;;;;;;5048760;28;20164;-67
2021/06/26 01:45:39;;;;;;;13.70;1.80;;;40.60;10.30;;;;;;5054378;28;20082;-70
2021/06/26 01:48:06;;;;;;;20.25;2.13;;;40.50;10.20;;;;;;5055043;28;20105;-66
2021/06/26 01:50:33;;;;;;;30.67;2.58;;;40.40;10.20;;;;;;5051963;28;20077;-65
2021/06/26 01:53:00;;;;;;;17.10;1.88;;;40.30;9.90;;;;;;5059506;28;20106;-65
2021/06/26 01:55:27;;;;;;;22.05;2.15;;;40.20;10.10;;;;;;5052307;28;20526;-66
2021/06/26 01:57:54;;;;;;;17.00;1.65;;;40.10;9.80;;;;;;5059540;28;20515;-65
2021/06/26 02:00:23;;;;;;;30.83;2.33;;;39.90;9.90;;;;;;5053450;28;20073;-66
2021/06/26 02:02:51;;;;;;;27.48;2.22;;;39.70;9.90;;;;;;5056757;28;20554;-66
2021/06/26 02:05:22;;;;;;;17.85;2.00;;;39.50;9.90;;;;;;5058104;28;20077;-67
2021/06/26 02:07:49;;;;;;;12.52;1.55;;;39.40;10.10;;;;;;5053318;28;20097;-68
2021/06/26 02:10:15;;;;;;;16.65;1.58;;;39.40;10.30;;;;;;5059973;28;20115;-67
2021/06/26 02:12:43;;;;;;;18.67;2.50;;;39.30;10.10;;;;;;5059502;28;20097;-64
2021/06/26 02:15:10;;;;;;;16.50;2.25;;;39.20;10.00;;;;;;5056013;28;20085;-65
2021/06/26 02:17:38;;;;;;;20.33;2.63;;;39.10;10.20;;;;;;5057736;28;20475;-67
2021/06/26 02:20:07;;;;;;;25.63;2.05;;;39.00;10.00;;;;;;5058112;28;20065;-67
2021/06/26 02:22:33;;;;;;;19.73;2.00;;;38.90;10.10;;;;;;5057323;28;20152;-67
2021/06/26 02:25:03;;;;;;;11.35;1.85;;;38.80;10.20;;;;;;5061144;28;20186;-65
2021/06/26 02:27:30;;;;;;;18.70;2.60;;;38.70;10.10;;;;;;5054082;28;20069;-66
2021/06/26 02:29:57;;;;;;;18.23;1.80;;;38.60;10.20;;;;;;5056542;28;20160;-66
2021/06/26 02:32:23;;;;;;;18.25;2.05;;;38.60;10.20;;;;;;5056961;28;20469;-66
2021/06/26 02:34:52;;;;;;;16.10;2.10;;;38.50;10.40;;;;;;5058665;28;20081;-66
2021/06/26 02:37:20;;;;;;;17.73;1.50;;;38.40;10.50;;;;;;5060047;28;20522;-66
2021/06/26 02:39:46;;;;;;;13.57;1.70;;;38.30;10.40;;;;;;5058258;28;20079;-68
2021/06/26 02:42:13;;;;;;;9.50;1.67;;;38.20;10.40;;;;;;5062017;28;20070;-65
2021/06/26 02:44:39;;;;;;;9.35;1.67;;;38.10;10.50;;;;;;5056170;28;20081;-66
2021/06/26 02:47:05;;;;;;;25.98;3.58;;;38.00;10.90;;;;;;5041200;28;20097;-66
2021/06/26 02:49:32;;;;;;;9.52;1.23;;;37.90;10.90;;;;;;5056011;28;20111;-66
2021/06/26 02:51:59;;;;;;;10.15;1.40;;;37.80;10.90;;;;;;5054868;28;20093;-66
2021/06/26 02:54:25;;;;;;;13.77;1.88;;;37.80;11.10;;;;;;5058001;28;20167;-66
2021/06/26 02:56:52;;;;;;;18.30;2.10;;;37.70;11.00;;;;;;5060111;28;20077;-67
2021/06/26 02:59:18;;;;;;;13.05;1.40;;;37.60;10.90;;;;;;5053678;28;20081;-66
2021/06/26 03:01:45;;;;;;;12.88;1.50;;;37.50;11.40;;;;;;5056852;28;20118;-67
2021/06/26 03:04:11;;;;;;;12.40;1.63;;;37.50;11.70;;;;;;5060278;28;20113;-67
2021/06/26 03:06:37;;;;;;;15.65;2.00;;;37.40;11.90;;;;;;5058080;28;20100;-66
2021/06/26 03:09:04;;;;;;;18.80;2.20;;;37.30;11.70;;;;;;5059660;28;20097;-68
2021/06/26 03:11:31;;;;;;;16.13;1.70;;;37.20;11.90;;;;;;5056840;28;20089;-66
2021/06/26 03:13:57;;;;;;;17.60;1.92;;;37.20;11.70;;;;;;5059090;28;20593;-66
2021/06/26 03:16:24;;;;;;;13.70;1.98;;;37.00;12.00;;;;;;5056097;28;20092;-67
2021/06/26 03:18:50;;;;;;;9.60;1.80;;;36.90;11.80;;;;;;5061923;28;20077;-67
2021/06/26 03:21:17;;;;;;;18.02;3.35;;;36.90;11.60;;;;;;5061805;28;20124;-66
2021/06/26 03:23:44;;;;;;;12.32;2.13;;;36.80;11.70;;;;;;5058259;28;20140;-67
2021/06/26 03:26:10;;;;;;;13.77;3.20;;;36.80;11.60;;;;;;5057689;28;20081;-66
2021/06/26 03:28:37;;;;;;;10.07;2.70;;;36.70;11.90;;;;;;5059692;28;20077;-68
2021/06/26 03:31:06;;;;;;;17.45;3.70;;;36.70;11.80;;;;;;5059148;28;20576;-67
2021/06/26 03:33:32;;;;;;;12.20;3.53;;;36.60;11.70;;;;;;5059175;28;20074;-68
2021/06/26 03:36:08;;;;;;;19.48;3.85;;;36.60;11.80;;;;;;5059100;28;20078;-71
2021/06/26 03:38:34;;;;;;;10.43;2.88;;;36.50;11.90;;;;;;5057206;28;20561;-66
2021/06/26 03:41:01;;;;;;;10.63;1.77;;;36.40;11.70;;;;;;5058102;28;20074;-67
2021/06/26 03:43:27;;;;;;;11.90;1.48;;;36.40;11.50;;;;;;5055269;28;20073;-68
2021/06/26 03:45:54;;;;;;;6.30;1.63;;;36.40;11.60;;;;;;5056356;28;20179;-66
2021/06/26 03:48:20;;;;;;;12.30;2.75;;;36.30;11.70;;;;;;5059803;28;20073;-66
2021/06/26 03:50:47;;;;;;;11.57;2.85;;;36.30;11.70;;;;;;5054795;28;20066;-67
2021/06/26 03:53:14;;;;;;;13.02;2.45;;;36.20;11.70;;;;;;5053343;28;20105;-67
2021/06/26 03:55:51;;;;;;;6.68;1.95;;;36.10;11.90;;;;;;5055092;28;20074;-67
2021/06/26 03:58:22;;;;;;;14.63;3.08;;;36.10;11.90;;;;;;5061126;28;20584;-67
2021/06/26 04:00:50;;;;;;;18.27;2.78;;;36.00;12.00;;;;;;5057359;28;20061;-67
2021/06/26 04:03:17;;;;;;;21.25;2.45;;;35.90;12.00;;;;;;5057527;28;20073;-68
2021/06/26 04:05:44;;;;;;;9.15;1.90;;;35.90;12.10;;;;;;5058722;28;20170;-68
2021/06/26 04:08:12;;;;;;;25.15;3.40;;;35.80;12.10;;;;;;5060918;28;20462;-67
2021/06/26 04:10:39;;;;;;;20.95;2.70;;;35.80;12.30;;;;;;5058677;28;21297;-68
2021/06/26 04:13:06;;;;;;;17.70;2.33;;;35.70;12.10;;;;;;5054211;28;20128;-67
2021/06/26 04:15:33;;;;;;;18.50;1.90;;;35.70;12.30;;;;;;5053068;28;20081;-67
2021/06/26 04:18:00;;;;;;;21.08;2.08;;;35.70;12.50;;;;;;5062073;28;20076;-66
2021/06/26 04:20:27;;;;;;;32.60;2.35;;;35.60;12.50;;;;;;5056056;28;20070;-67
2021/06/26 04:22:53;;;;;;;29.10;3.05;;;35.60;12.60;;;;;;5053514;28;20115;-67
2021/06/26 04:25:20;;;;;;;31.02;3.05;;;35.50;12.90;;;;;;5055869;28;20407;-67
2021/06/26 04:27:47;;;;;;;41.83;4.55;;;35.50;12.90;;;;;;5064073;28;20081;-67
2021/06/26 04:30:15;;;;;;;30.27;3.17;;;35.40;12.90;;;;;;5054528;28;20105;-67
2021/06/26 04:32:42;;;;;;;32.40;3.92;;;35.30;12.90;;;;;;5059689;28;20577;-67
2021/06/26 04:35:15;;;;;;;30.58;3.63;;;35.30;13.10;;;;;;5056304;28;20089;-68
2021/06/26 04:37:41;;;;;;;29.23;4.43;;;35.30;13.40;;;;;;5060139;28;20130;-69
2021/06/26 04:40:08;;;;;;;41.92;5.22;;;35.20;13.20;;;;;;5059585;28;20543;-67
2021/06/26 04:42:35;;;;;;;36.03;5.45;;;35.20;13.00;;;;;;5056040;28;20077;-67
2021/06/26 04:45:01;;;;;;;48.80;6.82;;;35.10;13.20;;;;;;5055734;28;20070;-67
2021/06/26 04:47:28;;;;;;;55.78;9.57;;;35.10;13.40;;;;;;5056617;28;20084;-67
2021/06/26 04:49:55;;;;;;;40.13;10.55;;;35.00;13.40;;;;;;5057737;28;20526;-67
2021/06/26 04:52:21;;;;;;;28.70;5.60;;;35.00;13.50;;;;;;5060194;28;20179;-68
2021/06/26 04:54:48;;;;;;;29.73;3.25;;;35.00;13.30;;;;;;5057819;28;20073;-69
2021/06/26 04:57:14;;;;;;;24.05;2.83;;;34.90;13.50;;;;;;5060307;28;20107;-67
2021/06/26 04:59:41;;;;;;;31.00;2.90;;;34.90;13.70;;;;;;5056076;28;20106;-68
2021/06/26 05:02:07;;;;;;;18.05;2.33;;;34.80;13.50;;;;;;5060155;28;20077;-67
2021/06/26 05:04:35;;;;;;;22.00;2.80;;;34.70;13.70;;;;;;5054802;28;20109;-69
2021/06/26 05:07:01;;;;;;;20.38;5.50;;;34.70;13.80;;;;;;5061457;28;20071;-67
2021/06/26 05:09:27;;;;;;;20.52;5.22;;;34.60;13.80;;;;;;5057359;28;20518;-68
2021/06/26 05:11:54;;;;;;;25.33;7.28;;;34.60;13.70;;;;;;5055554;28;20645;-68
2021/06/26 05:14:20;;;;;;;37.97;6.78;;;34.60;13.70;;;;;;5055442;28;20117;-67
2021/06/26 05:16:47;;;;;;;16.13;2.60;;;34.50;13.80;;;;;;5055883;28;20073;-67
2021/06/26 05:19:14;;;;;;;13.10;2.13;;;34.60;13.60;;;;;;5055740;28;20074;-67
2021/06/26 05:21:40;;;;;;;16.05;3.03;;;34.50;13.70;;;;;;5056756;28;20082;-68
2021/06/26 05:24:07;;;;;;;18.83;3.90;;;34.50;13.70;;;;;;5059150;28;20081;-67
2021/06/26 05:26:34;;;;;;;31.00;7.78;;;34.50;13.90;;;;;;5054447;28;20091;-66
2021/06/26 05:29:01;;;;;;;22.38;4.45;;;34.40;13.80;;;;;;5054273;28;20074;-67
2021/06/26 05:31:27;;;;;;;31.88;9.20;;;34.40;13.70;;;;;;5060686;28;20093;-66
2021/06/26 05:33:54;;;;;;;49.72;9.95;;;34.30;13.50;;;;;;5054058;28;20081;-68
2021/06/26 05:36:20;;;;;;;36.80;9.65;;;34.30;13.50;;;;;;5057796;28;20222;-67
2021/06/26 05:38:47;;;;;;;7.82;1.90;;;34.30;13.60;;;;;;5055955;28;20450;-67
2021/06/26 05:41:13;;;;;;;7.35;1.67;;;34.30;13.40;;;;;;5051189;28;20081;-67
2021/06/26 05:43:40;;;;;;;12.15;1.85;;;34.20;13.60;;;;;;5055167;28;20485;-68
2021/06/26 05:46:06;;;;;;;11.82;2.10;;;34.30;13.40;;;;;;5063472;28;20080;-68
2021/06/26 05:48:33;;;;;;;7.15;1.80;;;34.20;13.50;;;;;;5064390;28;20077;-66
2021/06/26 05:50:59;;;;;;;11.25;1.92;;;34.10;13.40;;;;;;5057930;28;20112;-67
2021/06/26 05:53:26;;;;;;;10.38;2.10;;;34.10;13.50;;;;;;5056893;28;20100;-67
2021/06/26 05:56:01;;;;;;;11.95;1.90;;;34.10;13.50;;;;;;5061473;28;20073;-66
2021/06/26 05:58:36;;;;;;;12.70;2.00;;;34.00;13.40;;;;;;5058763;28;20077;-67
2021/06/26 06:01:07;;;;;;;8.65;1.50;;;34.00;13.40;;;;;;5057288;28;20069;-67
2021/06/26 06:03:34;;;;;;;6.53;1.80;;;33.90;13.40;;;;;;5060349;28;20526;-66
2021/06/26 06:06:00;;;;;;;10.98;2.15;;;33.90;13.50;;;;;;5062904;28;20081;-67
2021/06/26 06:08:27;;;;;;;18.15;2.42;;;33.80;13.60;;;;;;5059929;28;20180;-67
2021/06/26 06:10:53;;;;;;;13.10;2.00;;;33.80;13.70;;;;;;5062661;28;20415;-67
2021/06/26 06:13:21;;;;;;;9.10;2.00;;;33.80;13.80;;;;;;5058898;28;20124;-68
2021/06/26 06:15:50;;;;;;;9.20;2.20;;;33.80;13.60;;;;;;5059121;28;20069;-66
2021/06/26 06:18:19;;;;;;;16.90;2.70;;;33.70;13.50;;;;;;5064488;28;20073;-67
2021/06/26 06:20:47;;;;;;;18.88;5.50;;;33.70;13.40;;;;;;5064222;28;20070;-67
2021/06/26 06:23:14;;;;;;;33.15;16.27;;;33.70;13.60;;;;;;5061384;28;20073;-66
2021/06/26 06:25:41;;;;;;;27.15;12.85;;;33.70;13.50;;;;;;5060255;28;20114;-66
2021/06/26 06:28:07;;;;;;;16.83;7.90;;;33.60;13.40;;;;;;5042215;28;20114;-66
2021/06/26 06:30:35;;;;;;;10.75;4.07;;;33.70;13.40;;;;;;5060532;28;20076;-66
2021/06/26 06:33:04;;;;;;;13.88;2.80;;;33.60;13.30;;;;;;5062267;28;20085;-68
2021/06/26 06:35:31;;;;;;;10.55;2.95;;;33.60;13.30;;;;;;5060013;28;20070;-67
2021/06/26 06:37:59;;;;;;;9.80;2.33;;;33.50;13.40;;;;;;5059938;28;20080;-66
2021/06/26 06:40:28;;;;;;;9.30;2.22;;;33.50;13.50;;;;;;5057455;28;20616;-67
2021/06/26 06:42:54;;;;;;;10.13;2.10;;;33.50;13.80;;;;;;5062824;28;20081;-66
2021/06/26 06:45:24;;;;;;;14.32;2.80;;;33.40;13.70;;;;;;5057429;28;20094;-69
2021/06/26 06:47:51;;;;;;;14.70;3.42;;;33.60;13.60;;;;;;5059312;28;20073;-67
2021/06/26 06:50:18;;;;;;;13.13;2.90;;;33.80;13.90;;;;;;5057599;28;20070;-67
2021/06/26 06:52:44;;;;;;;17.35;3.03;;;34.00;13.90;;;;;;5058704;28;20101;-67
2021/06/26 06:55:11;;;;;;;13.20;3.10;;;34.10;14.00;;;;;;5050416;28;20157;-66
2021/06/26 06:57:38;;;;;;;7.78;2.90;;;34.20;13.70;;;;;;5060357;28;20446;-66
2021/06/26 07:00:07;;;;;;;11.38;3.08;;;34.10;14.30;;;;;;5056495;28;20087;-66
2021/06/26 07:02:34;;;;;;;13.18;2.50;;;34.10;13.70;;;;;;5055709;28;20214;-67
2021/06/26 07:05:00;;;;;;;10.52;1.92;;;34.10;13.60;;;;;;5055987;28;20073;-67
2021/06/26 07:07:27;;;;;;;15.23;2.30;;;34.10;13.00;;;;;;5058974;28;20080;-67
2021/06/26 07:09:53;;;;;;;8.60;2.00;;;34.10;12.90;;;;;;5055293;28;20172;-67
2021/06/26 07:12:20;;;;;;;11.32;1.98;;;34.10;13.10;;;;;;5060394;28;20521;-65
2021/06/26 07:14:49;;;;;;;7.03;2.05;;;34.10;12.90;;;;;;5059497;28;20137;-66
2021/06/26 07:17:15;;;;;;;11.77;2.22;;;34.00;12.90;;;;;;5056907;28;20535;-66
2021/06/26 07:19:42;;;;;;;3.67;1.35;;;34.10;13.00;;;;;;5058601;28;20073;-66
2021/06/26 07:22:09;;;;;;;12.32;1.80;;;34.00;13.00;;;;;;5058736;28;20077;-67
2021/06/26 07:24:35;;;;;;;9.57;1.75;;;33.90;13.00;;;;;;5056115;28;20135;-67
2021/06/26 07:27:02;;;;;;;7.90;1.50;;;33.90;13.30;;;;;;5059333;28;20621;-67
2021/06/26 07:29:28;;;;;;;4.45;1.67;;;33.90;13.60;;;;;;5054981;28;20157;-66
2021/06/26 07:31:55;;;;;;;7.55;1.52;;;33.90;13.40;;;;;;5053965;28;20267;-67
2021/06/26 07:34:21;;;;;;;8.68;1.98;;;33.80;13.40;;;;;;5053302;28;20069;-67
2021/06/26 07:36:48;;;;;;;5.82;1.75;;;33.70;13.60;;;;;;5057215;28;20073;-66
2021/06/26 07:39:14;;;;;;;6.43;1.67;;;33.60;13.80;;;;;;5062069;28;20073;-66
2021/06/26 07:41:41;;;;;;;5.65;1.30;;;33.50;13.80;;;;;;5055063;28;20081;-66
2021/06/26 07:44:07;;;;;;;5.07;1.40;;;33.40;13.50;;;;;;5057609;28;20078;-66
2021/06/26 07:46:34;;;;;;;9.25;1.48;;;33.30;13.70;;;;;;5054799;28;20187;-66
2021/06/26 07:49:01;;;;;;;5.75;1.25;;;33.20;13.80;;;;;;5059286;28;20130;-66
2021/06/26 07:51:27;;;;;;;7.00;1.33;;;33.20;13.90;;;;;;5058139;28;20089;-67
2021/06/26 07:53:54;;;;;;;8.27;1.60;;;33.00;14.00;;;;;;5052594;28;20089;-67
2021/06/26 07:56:20;;;;;;;7.13;1.58;;;32.90;14.30;;;;;;5058931;28;20429;-66
2021/06/26 07:58:47;;;;;;;7.03;1.40;;;32.80;17.00;;;;;;5052146;28;20081;-66
2021/06/26 08:01:16;;;;;;;8.20;1.60;;;32.80;14.60;;;;;;5051229;28;20593;-67
2021/06/26 08:03:44;;;;;;;18.08;2.28;;;32.90;14.60;;;;;;5052511;28;20107;-67
2021/06/26 08:06:10;;;;;;;8.07;1.40;;;32.80;14.70;;;;;;5054988;28;20446;-68
2021/06/26 08:08:37;;;;;;;8.18;1.63;;;32.70;14.70;;;;;;5053016;28;20135;-67
2021/06/26 08:11:04;;;;;;;10.35;1.60;;;32.50;14.50;;;;;;5056138;28;20153;-67
2021/06/26 08:13:30;;;;;;;8.13;1.75;;;32.50;14.90;;;;;;5053839;28;20128;-67
2021/06/26 08:15:57;;;;;;;7.55;1.70;;;32.50;15.10;;;;;;5054499;28;20074;-67
2021/06/26 08:18:23;;;;;;;11.13;1.58;;;32.40;14.90;;;;;;5053817;28;20069;-67
2021/06/26 08:20:49;;;;;;;5.90;1.52;;;32.40;15.10;;;;;;5059159;28;20069;-66
2021/06/26 08:23:16;;;;;;;13.68;1.60;;;32.40;16.10;;;;;;5056587;28;20078;-68
2021/06/26 08:25:43;;;;;;;7.05;1.30;;;32.40;15.70;;;;;;5058873;28;20092;-67
2021/06/26 08:28:09;;;;;;;6.78;1.58;;;32.40;15.30;;;;;;5059431;28;20080;-67
2021/06/26 08:30:36;;;;;;;5.82;1.60;;;32.30;15.30;;;;;;5054125;28;20124;-66
2021/06/26 08:33:03;;;;;;;8.10;1.63;;;32.30;15.10;;;;;;5053761;28;20573;-66
2021/06/26 08:35:29;;;;;;;5.35;1.30;;;32.20;15.40;;;;;;5052369;28;20073;-67
2021/06/26 08:37:56;;;;;;;6.75;1.27;;;32.20;15.40;;;;;;5050318;28;20450;-66
2021/06/26 08:40:23;;;;;;;6.30;1.50;;;32.10;15.40;;;;;;5050842;28;20528;-66
2021/06/26 08:42:50;;;;;;;5.50;1.20;;;32.00;15.60;;;;;;5051333;28;20204;-68
2021/06/26 08:45:19;;;;;;;3.80;1.25;;;31.90;15.80;;;;;;5051924;28;20077;-67
2021/06/26 08:47:52;;;;;;;5.05;1.45;;;31.80;16.10;;;;;;5053645;28;20073;-67
2021/06/26 08:50:21;;;;;;;5.78;1.90;;;31.80;16.40;;;;;;5053232;28;20073;-66
2021/06/26 08:52:47;;;;;;;8.18;1.77;;;31.70;16.60;;;;;;5051691;28;20605;-67
2021/06/26 08:55:15;;;;;;;13.07;1.60;;;31.70;16.80;;;;;;5056415;28;20174;-67
2021/06/26 08:57:44;;;;;;;7.13;1.90;;;31.60;16.90;;;;;;5055399;28;20070;-67
2021/06/26 09:00:19;;;;;;;9.43;1.20;;;31.60;17.00;;;;;;5056392;28;20085;-67
2021/06/26 09:02:46;;;;;;;5.07;1.40;;;31.70;16.90;;;;;;5055503;28;20175;-67
2021/06/26 09:05:27;;;;;;;9.27;1.90;;;31.60;16.50;;;;;;5058025;28;20077;-66
2021/06/26 09:07:54;;;;;;;7.88;1.50;;;31.60;16.60;;;;;;5054977;28;20124;-66
2021/06/26 09:10:22;;;;;;;9.43;1.50;;;31.60;16.50;;;;;;5053012;28;20081;-66
2021/06/26 09:12:50;;;;;;;4.97;1.67;;;31.60;16.40;;;;;;5058434;28;20542;-66
2021/06/26 09:15:21;;;;;;;8.80;1.50;;;31.60;16.30;;;;;;5052420;28;20081;-67
2021/06/26 09:17:48;;;;;;;8.60;1.67;;;31.50;16.30;;;;;;5053526;28;20092;-67
2021/06/26 09:20:15;;;;;;;8.68;1.40;;;31.50;16.50;;;;;;5054547;28;20077;-67
2021/06/26 09:22:43;;;;;;;7.50;1.60;;;31.50;16.30;;;;;;5052102;28;20135;-66
2021/06/26 09:25:34;;;;;;;6.00;1.70;;;31.40;16.50;;;;;;5054951;28;20131;-65
2021/06/26 09:28:03;;;;;;;5.43;1.55;;;31.40;16.60;;;;;;5055147;28;20160;-66
2021/06/26 09:30:36;;;;;;;10.15;1.88;;;31.40;16.40;;;;;;5052378;28;20469;-67
2021/06/26 09:33:11;;;;;;;8.32;1.90;;;31.30;16.10;;;;;;5052059;28;20107;-66
2021/06/26 09:35:39;;;;;;;10.93;1.52;;;31.20;17.00;;;;;;5051224;28;20073;-67
2021/06/26 09:38:09;;;;;;;6.55;1.60;;;31.20;17.40;;;;;;5053991;28;20501;-66
2021/06/26 09:40:40;;;;;;;6.65;1.70;;;31.10;17.40;;;;;;5054731;28;20111;-67
2021/06/26 09:43:08;;;;;;;9.85;1.75;;;31.10;17.60;;;;;;5055302;28;20081;-67
2021/06/26 09:45:35;;;;;;;7.05;1.70;;;31.00;17.50;;;;;;5050738;28;20081;-68
2021/06/26 09:48:08;;;;;;;11.30;1.88;;;31.00;17.80;;;;;;5053125;28;20123;-66
2021/06/26 09:50:38;;;;;;;10.75;2.03;;;30.90;18.00;;;;;;5056099;28;20101;-67
2021/06/26 09:53:06;;;;;;;4.22;1.23;;;30.80;18.30;;;;;;5054054;28;20093;-67
2021/06/26 09:55:46;;;;;;;8.82;1.80;;;30.80;18.50;;;;;;5051301;28;20074;-67
2021/06/26 09:58:18;;;;;;;7.68;1.77;;;30.70;18.70;;;;;;5055298;28;20088;-66
2021/06/26 10:00:45;;;;;;;7.53;2.25;;;30.60;18.70;;;;;;5049870;28;20066;-66
2021/06/26 10:03:16;;;;;;;6.63;1.50;;;30.40;18.80;;;;;;5052788;28;20439;-67
2021/06/26 10:05:47;;;;;;;11.57;1.73;;;30.50;18.90;;;;;;5052765;28;20148;-66
2021/06/26 10:08:15;;;;;;;5.53;1.35;;;30.40;18.20;;;;;;5051850;28;20077;-66
2021/06/26 10:10:43;;;;;;;5.40;1.42;;;30.40;18.50;;;;;;5051402;28;20074;-67
2021/06/26 10:13:13;;;;;;;6.97;1.40;;;30.30;18.40;;;;;;5052129;28;20119;-66
2021/06/26 10:15:40;;;;;;;8.48;1.48;;;30.30;18.80;;;;;;5050664;28;20069;-68
2021/06/26 10:18:09;;;;;;;6.75;1.60;;;30.30;19.00;;;;;;5052185;28;20212;-67
2021/06/26 10:20:37;;;;;;;8.80;1.73;;;30.30;18.80;;;;;;5052693;28;20160;-66
2021/06/26 10:23:04;;;;;;;8.82;1.80;;;30.20;18.70;;;;;;5054566;28;20164;-66
2021/06/26 10:25:33;;;;;;;10.85;1.92;;;30.20;18.60;;;;;;5052448;28;21052;-66
2021/06/26 10:28:16;;;;;;;8.88;1.50;;;30.20;18.80;;;;;;5050520;28;20073;-67
2021/06/26 10:30:43;;;;;;;3.60;1.38;;;30.20;18.70;;;;;;5051779;28;20511;-67
2021/06/26 10:33:12;;;;;;;9.82;2.20;;;30.20;19.10;;;;;;5057082;28;20108;-67
2021/06/26 10:35:51;;;;;;;6.90;1.40;;;30.20;19.70;;;;;;5057258;28;20168;-66
2021/06/26 10:38:17;;;;;;;10.68;1.90;;;30.10;19.60;;;;;;5053846;28;20077;-67
2021/06/26 10:40:53;;;;;;;6.63;1.73;;;30.00;20.00;;;;;;5057389;28;20065;-67
2021/06/26 10:43:31;;;;;;;9.25;1.42;;;29.90;20.00;;;;;;5056061;28;20429;-67
2021/06/26 10:46:11;;;;;;;9.90;1.83;;;29.80;20.80;;;;;;5058272;28;20088;-66
2021/06/26 10:48:39;;;;;;;18.67;1.85;;;29.70;20.30;;;;;;5055134;28;20081;-67
2021/06/26 10:51:06;;;;;;;12.02;1.67;;;29.60;20.50;;;;;;5056632;28;20069;-65
2021/06/26 10:53:35;;;;;;;12.35;1.98;;;29.50;20.80;;;;;;5057168;28;20098;-67
2021/06/26 10:56:19;;;;;;;12.18;2.20;;;29.40;21.10;;;;;;5053683;28;20078;-66
2021/06/26 10:58:47;;;;;;;15.93;1.88;;;29.40;21.40;;;;;;5058095;28;20084;-66
2021/06/26 11:01:20;;;;;;;11.85;1.60;;;29.30;21.20;;;;;;5053615;28;20080;-66
2021/06/26 11:03:52;;;;;;;14.73;1.85;;;29.30;21.20;;;;;;5061949;28;20073;-66
2021/06/26 11:06:26;;;;;;;7.68;1.88;;;29.20;21.50;;;;;;5054230;28;20113;-66
2021/06/26 11:08:59;;;;;;;13.60;2.08;;;29.20;21.40;;;;;;5056086;28;20411;-66
2021/06/26 11:11:45;;;;;;;7.93;1.83;;;29.10;21.50;;;;;;5057681;28;20111;-67
2021/06/26 11:14:15;;;;;;;11.52;1.90;;;29.10;21.20;;;;;;5054193;28;20117;-66
2021/06/26 11:16:50;;;;;;;11.02;1.80;;;29.00;21.10;;;;;;5055569;28;20092;-66
2021/06/26 11:19:18;;;;;;;7.28;1.52;;;28.90;21.50;;;;;;5053470;28;20077;-67
2021/06/26 11:21:54;;;;;;;13.60;2.08;;;28.90;21.50;;;;;;5057501;28;20169;-66
2021/06/26 11:24:34;;;;;;;6.80;1.60;;;28.90;20.90;;;;;;5056425;28;20521;-66
2021/06/26 11:27:01;;;;;;;11.00;1.80;;;28.90;21.00;;;;;;5055904;28;20671;-66
2021/06/26 11:29:32;;;;;;;6.30;1.52;;;29.00;20.70;;;;;;5054807;28;20454;-67
2021/06/26 11:32:00;;;;;;;7.82;1.70;;;29.00;21.20;;;;;;5054903;28;20447;-67
2021/06/26 11:34:27;;;;;;;12.65;2.00;;;28.90;21.50;;;;;;5055848;28;20069;-67
2021/06/26 11:37:03;;;;;;;6.57;2.00;;;28.80;21.60;;;;;;5057416;28;20104;-67
2021/06/26 11:39:31;;;;;;;8.75;1.85;;;28.70;21.60;;;;;;5056084;28;20101;-67
2021/06/26 11:41:58;;;;;;;12.90;2.05;;;28.60;21.10;;;;;;5055213;28;20215;-66
2021/06/26 11:44:35;;;;;;;10.35;2.05;;;28.60;21.10;;;;;;5057071;28;20099;-66
2021/06/26 11:47:04;;;;;;;11.68;2.80;;;28.60;21.60;;;;;;5055382;28;20077;-67
2021/06/26 11:49:39;;;;;;;21.65;2.75;;;28.50;21.20;;;;;;5058345;28;20077;-66
2021/06/26 11:52:08;;;;;;;21.35;3.28;;;28.50;21.40;;;;;;5054112;28;20103;-66
2021/06/26 11:54:34;;;;;;;27.48;3.40;;;28.50;21.20;;;;;;5055150;28;20065;-67
2021/06/26 11:57:01;;;;;;;29.75;3.88;;;28.30;21.50;;;;;;5052254;28;20082;-66
2021/06/26 11:59:39;;;;;;;17.55;4.25;;;28.30;21.40;;;;;;5057139;28;20546;-65
2021/06/26 12:02:06;;;;;;;30.42;4.45;;;28.40;21.20;;;;;;5056326;28;20477;-68
2021/06/26 12:04:32;;;;;;;28.55;5.10;;;28.30;21.50;;;;;;5052093;28;20575;-67
2021/06/26 12:06:59;;;;;;;24.52;4.72;;;28.20;21.50;;;;;;5056115;28;20108;-66
2021/06/26 12:09:26;;;;;;;20.02;4.43;;;28.20;21.80;;;;;;5054111;28;20110;-66
2021/06/26 12:11:57;;;;;;;26.20;4.45;;;28.20;21.90;;;;;;5053711;28;20120;-66
2021/06/26 12:14:28;;;;;;;33.90;5.25;;;28.10;21.40;;;;;;5053297;28;20137;-66
2021/06/26 12:17:03;;;;;;;26.13;5.15;;;28.10;21.50;;;;;;5057234;28;20120;-66
2021/06/26 12:19:31;;;;;;;21.88;5.95;;;28.10;22.20;;;;;;5055777;28;20069;-66
2021/06/26 12:21:59;;;;;;;31.40;5.68;;;28.10;22.30;;;;;;5054260;28;20127;-66
2021/06/26 12:24:40;;;;;;;28.15;6.63;;;28.10;22.20;;;;;;5054490;28;20104;-65
2021/06/26 12:27:10;;;;;;;27.85;6.40;;;28.10;22.30;;;;;;5055246;28;20065;-65
2021/06/26 12:29:40;;;;;;;30.27;6.47;;;28.10;22.30;;;;;;5057480;28;20387;-65
2021/06/26 12:32:07;;;;;;;32.72;6.20;;;28.00;22.50;;;;;;5052836;28;20128;-66
2021/06/26 12:34:45;;;;;;;24.88;5.90;;;28.00;22.00;;;;;;5052266;28;20505;-65
2021/06/26 12:37:12;;;;;;;29.75;5.78;;;28.00;21.90;;;;;;5053644;28;20534;-65
2021/06/26 12:39:38;;;;;;;31.73;6.38;;;28.00;21.40;;;;;;5059323;28;20120;-65
2021/06/26 12:42:10;;;;;;;22.15;5.18;;;27.90;21.90;;;;;;5054590;28;20077;-65
2021/06/26 12:44:37;;;;;;;36.65;5.68;;;27.90;22.20;;;;;;5052964;28;20070;-65